sensor_id;sensor_type;location;lat;lon;timestamp;pressure;altitude;pressure_sealevel;temperature;humidity
71764;BME280;59602;52.142;5.408;2023-02-20T00:01:24;102656.31;;;6.39;91.59
71764;BME280;59602;52.142;5.408;2023-02-20T00:03:51;102656.81;;;6.41;91.40
71764;BME280;59602;52.142;5.408;2023-02-20T00:06:17;102657.63;;;6.41;91.42
71764;BME280;59602;52.142;5.408;2023-02-20T00:08:44;102643.81;;;6.43;91.57
71764;BME280;59602;52.142;5.408;2023-02-20T00:11:11;102642.97;;;6.42;91.46
71764;BME280;59602;52.142;5.408;2023-02-20T00:13:37;102650.00;;;6.43;91.49
71764;BME280;59602;52.142;5.408;2023-02-20T00:16:04;102658.69;;;6.40;91.66
71764;BME280;59602;52.142;5.408;2023-02-20T00:18:31;102657.91;;;6.40;91.60
71764;BME280;59602;52.142;5.408;2023-02-20T00:20:58;102662.53;;;6.39;91.72
71764;BME280;59602;52.142;5.408;2023-02-20T00:23:24;102644.41;;;6.40;91.43
71764;BME280;59602;52.142;5.408;2023-02-20T00:25:51;102625.69;;;6.43;91.67
71764;BME280;59602;52.142;5.408;2023-02-20T00:28:17;102633.78;;;6.43;91.82
71764;BME280;59602;52.142;5.408;2023-02-20T00:30:44;102618.19;;;6.40;91.91
71764;BME280;59602;52.142;5.408;2023-02-20T00:33:10;102624.06;;;6.42;91.58
71764;BME280;59602;52.142;5.408;2023-02-20T00:35:37;102623.28;;;6.42;91.50
71764;BME280;59602;52.142;5.408;2023-02-20T00:38:04;102611.69;;;6.41;91.88
71764;BME280;59602;52.142;5.408;2023-02-20T00:40:30;102607.06;;;6.42;91.80
71764;BME280;59602;52.142;5.408;2023-02-20T00:42:57;102609.16;;;6.45;91.93
71764;BME280;59602;52.142;5.408;2023-02-20T00:45:24;102603.44;;;6.47;91.75
71764;BME280;59602;52.142;5.408;2023-02-20T00:47:50;102598.53;;;6.49;91.52
71764;BME280;59602;52.142;5.408;2023-02-20T00:50:17;102596.13;;;6.47;91.10
71764;BME280;59602;52.142;5.408;2023-02-20T00:52:44;102590.56;;;6.43;90.99
71764;BME280;59602;52.142;5.408;2023-02-20T00:55:11;102589.44;;;6.44;91.55
71764;BME280;59602;52.142;5.408;2023-02-20T00:57:37;102582.94;;;6.46;91.21
71764;BME280;59602;52.142;5.408;2023-02-20T01:00:08;102581.84;;;6.47;91.47
71764;BME280;59602;52.142;5.408;2023-02-20T01:02:35;102573.06;;;6.41;91.54
71764;BME280;59602;52.142;5.408;2023-02-20T01:05:02;102568.75;;;6.40;91.63
71764;BME280;59602;52.142;5.408;2023-02-20T01:07:29;102572.88;;;6.37;91.31
71764;BME280;59602;52.142;5.408;2023-02-20T01:09:55;102553.66;;;6.39;91.57
71764;BME280;59602;52.142;5.408;2023-02-20T01:12:22;102544.75;;;6.38;91.50
71764;BME280;59602;52.142;5.408;2023-02-20T01:14:49;102530.13;;;6.39;91.61
71764;BME280;59602;52.142;5.408;2023-02-20T01:17:15;102509.94;;;6.37;91.57
71764;BME280;59602;52.142;5.408;2023-02-20T01:19:43;102501.34;;;6.35;91.22
71764;BME280;59602;52.142;5.408;2023-02-20T01:22:09;102506.75;;;6.35;91.81
71764;BME280;59602;52.142;5.408;2023-02-20T01:24:36;102511.97;;;6.31;91.75
71764;BME280;59602;52.142;5.408;2023-02-20T01:27:03;102505.47;;;6.32;91.72
71764;BME280;59602;52.142;5.408;2023-02-20T01:29:30;102519.78;;;6.33;91.66
71764;BME280;59602;52.142;5.408;2023-02-20T01:31:56;102510.88;;;6.32;91.69
71764;BME280;59602;52.142;5.408;2023-02-20T01:34:23;102501.50;;;6.30;91.56
71764;BME280;59602;52.142;5.408;2023-02-20T01:36:51;102519.56;;;6.29;91.60
71764;BME280;59602;52.142;5.408;2023-02-20T01:39:22;102522.28;;;6.29;91.55
71764;BME280;59602;52.142;5.408;2023-02-20T01:41:52;102518.00;;;6.28;91.83
71764;BME280;59602;52.142;5.408;2023-02-20T01:44:23;102510.19;;;6.27;91.91
71764;BME280;59602;52.142;5.408;2023-02-20T01:46:52;102511.59;;;6.24;91.83
71764;BME280;59602;52.142;5.408;2023-02-20T01:49:26;102501.59;;;6.24;91.79
71764;BME280;59602;52.142;5.408;2023-02-20T01:51:58;102504.13;;;6.21;91.68
71764;BME280;59602;52.142;5.408;2023-02-20T01:54:26;102501.25;;;6.17;91.77
71764;BME280;59602;52.142;5.408;2023-02-20T01:56:56;102507.91;;;6.20;92.21
71764;BME280;59602;52.142;5.408;2023-02-20T01:59:26;102496.03;;;6.21;92.53
71764;BME280;59602;52.142;5.408;2023-02-20T02:01:54;102510.31;;;6.21;92.41
71764;BME280;59602;52.142;5.408;2023-02-20T02:04:21;102510.81;;;6.23;92.61
71764;BME280;59602;52.142;5.408;2023-02-20T02:06:51;102496.97;;;6.25;92.56
71764;BME280;59602;52.142;5.408;2023-02-20T02:09:25;102484.59;;;6.24;92.75
71764;BME280;59602;52.142;5.408;2023-02-20T02:11:53;102471.09;;;6.24;93.08
71764;BME280;59602;52.142;5.408;2023-02-20T02:14:20;102468.88;;;6.26;93.04
71764;BME280;59602;52.142;5.408;2023-02-20T02:19:58;102480.78;;;6.25;93.66
71764;BME280;59602;52.142;5.408;2023-02-20T02:23:01;102462.69;;;6.26;93.53
71764;BME280;59602;52.142;5.408;2023-02-20T02:25:56;102456.97;;;6.27;93.93
71764;BME280;59602;52.142;5.408;2023-02-20T02:28:46;102460.97;;;6.30;93.79
71764;BME280;59602;52.142;5.408;2023-02-20T02:31:46;102460.16;;;6.29;94.28
71764;BME280;59602;52.142;5.408;2023-02-20T02:34:45;102457.44;;;6.29;94.06
71764;BME280;59602;52.142;5.408;2023-02-20T02:37:30;102444.13;;;6.33;94.29
71764;BME280;59602;52.142;5.408;2023-02-20T02:40:11;102446.84;;;6.33;94.41
71764;BME280;59602;52.142;5.408;2023-02-20T02:45:13;102442.72;;;6.35;94.79
71764;BME280;59602;52.142;5.408;2023-02-20T02:47:48;102441.63;;;6.36;95.24
71764;BME280;59602;52.142;5.408;2023-02-20T02:50:22;102445.91;;;6.37;95.24
71764;BME280;59602;52.142;5.408;2023-02-20T02:52:50;102441.78;;;6.40;95.56
71764;BME280;59602;52.142;5.408;2023-02-20T02:55:28;102440.06;;;6.44;95.60
71764;BME280;59602;52.142;5.408;2023-02-20T02:57:55;102447.53;;;6.47;95.82
71764;BME280;59602;52.142;5.408;2023-02-20T03:00:32;102445.63;;;6.48;95.99
71764;BME280;59602;52.142;5.408;2023-02-20T03:03:28;102437.53;;;6.48;95.76
71764;BME280;59602;52.142;5.408;2023-02-20T03:06:00;102432.59;;;6.50;96.21
71764;BME280;59602;52.142;5.408;2023-02-20T03:08:40;102438.97;;;6.54;96.38
71764;BME280;59602;52.142;5.408;2023-02-20T03:11:12;102434.06;;;6.56;96.59
71764;BME280;59602;52.142;5.408;2023-02-20T03:13:44;102449.66;;;6.59;96.58
71764;BME280;59602;52.142;5.408;2023-02-20T03:16:40;102442.84;;;6.61;96.78
71764;BME280;59602;52.142;5.408;2023-02-20T03:19:12;102434.38;;;6.63;96.86
71764;BME280;59602;52.142;5.408;2023-02-20T03:21:43;102433.28;;;6.64;97.28
71764;BME280;59602;52.142;5.408;2023-02-20T03:24:13;102431.56;;;6.68;97.18
71764;BME280;59602;52.142;5.408;2023-02-20T03:26:44;102423.13;;;6.70;97.52
71764;BME280;59602;52.142;5.408;2023-02-20T03:29:17;102418.53;;;6.70;97.42
71764;BME280;59602;52.142;5.408;2023-02-20T03:31:51;102429.50;;;6.74;97.50
71764;BME280;59602;52.142;5.408;2023-02-20T03:34:39;102430.94;;;6.71;97.40
71764;BME280;59602;52.142;5.408;2023-02-20T03:37:27;102424.09;;;6.74;97.79
71764;BME280;59602;52.142;5.408;2023-02-20T03:40:15;102426.97;;;6.77;97.52
71764;BME280;59602;52.142;5.408;2023-02-20T03:43:05;102421.28;;;6.79;97.32
71764;BME280;59602;52.142;5.408;2023-02-20T03:45:51;102410.13;;;6.80;97.69
71764;BME280;59602;52.142;5.408;2023-02-20T03:48:29;102416.00;;;6.82;97.37
71764;BME280;59602;52.142;5.408;2023-02-20T03:50:58;102414.91;;;6.83;97.57
71764;BME280;59602;52.142;5.408;2023-02-20T03:53:25;102416.50;;;6.84;97.60
71764;BME280;59602;52.142;5.408;2023-02-20T03:55:54;102414.28;;;6.86;97.64
71764;BME280;59602;52.142;5.408;2023-02-20T03:58:23;102402.81;;;6.90;97.52
71764;BME280;59602;52.142;5.408;2023-02-20T04:00:54;102402.50;;;6.91;97.58
71764;BME280;59602;52.142;5.408;2023-02-20T04:03:26;102402.22;;;6.93;97.59
71764;BME280;59602;52.142;5.408;2023-02-20T04:05:56;102398.38;;;6.94;97.49
71764;BME280;59602;52.142;5.408;2023-02-20T04:08:28;102387.56;;;6.94;97.57
71764;BME280;59602;52.142;5.408;2023-02-20T04:11:05;102397.28;;;6.95;97.74
71764;BME280;59602;52.142;5.408;2023-02-20T04:13:36;102392.34;;;6.97;97.48
71764;BME280;59602;52.142;5.408;2023-02-20T04:16:04;102397.13;;;7.00;97.63
71764;BME280;59602;52.142;5.408;2023-02-20T04:18:31;102394.13;;;7.01;97.72
71764;BME280;59602;52.142;5.408;2023-02-20T04:21:01;102390.28;;;7.02;97.61
71764;BME280;59602;52.142;5.408;2023-02-20T04:23:34;102393.78;;;7.03;97.44
71764;BME280;59602;52.142;5.408;2023-02-20T04:26:07;102396.97;;;7.05;97.55
71764;BME280;59602;52.142;5.408;2023-02-20T04:28:34;102402.06;;;7.06;97.79
71764;BME280;59602;52.142;5.408;2023-02-20T04:31:01;102389.03;;;7.09;97.34
71764;BME280;59602;52.142;5.408;2023-02-20T04:33:28;102396.00;;;7.10;97.57
71764;BME280;59602;52.142;5.408;2023-02-20T04:35:55;102401.13;;;7.11;97.31
71764;BME280;59602;52.142;5.408;2023-02-20T04:38:23;102382.97;;;7.12;97.44
71764;BME280;59602;52.142;5.408;2023-02-20T04:40:50;102381.06;;;7.12;97.44
71764;BME280;59602;52.142;5.408;2023-02-20T04:43:17;102384.25;;;7.14;97.22
71764;BME280;59602;52.142;5.408;2023-02-20T04:45:43;102383.16;;;7.15;97.28
71764;BME280;59602;52.142;5.408;2023-02-20T04:48:10;102394.28;;;7.14;97.54
71764;BME280;59602;52.142;5.408;2023-02-20T04:50:36;102391.25;;;7.15;97.12
71764;BME280;59602;52.142;5.408;2023-02-20T04:53:03;102390.94;;;7.17;97.26
71764;BME280;59602;52.142;5.408;2023-02-20T04:55:30;102402.69;;;7.21;97.11
71764;BME280;59602;52.142;5.408;2023-02-20T04:57:56;102391.56;;;7.22;97.31
71764;BME280;59602;52.142;5.408;2023-02-20T05:00:25;102391.25;;;7.24;97.40
71764;BME280;59602;52.142;5.408;2023-02-20T05:02:52;102389.66;;;7.23;97.15
71764;BME280;59602;52.142;5.408;2023-02-20T05:05:22;102385.06;;;7.23;97.33
71764;BME280;59602;52.142;5.408;2023-02-20T05:07:53;102393.63;;;7.25;97.08
71764;BME280;59602;52.142;5.408;2023-02-20T05:10:21;102382.50;;;7.27;97.54
71764;BME280;59602;52.142;5.408;2023-02-20T05:12:48;102393.00;;;7.28;97.40
71764;BME280;59602;52.142;5.408;2023-02-20T05:15:15;102386.81;;;7.28;97.26
71764;BME280;59602;52.142;5.408;2023-02-20T05:17:42;102386.00;;;7.27;96.85
71764;BME280;59602;52.142;5.408;2023-02-20T05:20:09;102389.19;;;7.30;97.29
71764;BME280;59602;52.142;5.408;2023-02-20T05:22:36;102384.25;;;7.32;96.83
71764;BME280;59602;52.142;5.408;2023-02-20T05:25:03;102382.34;;;7.32;96.83
71764;BME280;59602;52.142;5.408;2023-02-20T05:27:29;102373.91;;;7.34;96.84
71764;BME280;59602;52.142;5.408;2023-02-20T05:29:58;102378.53;;;7.33;96.90
71764;BME280;59602;52.142;5.408;2023-02-20T05:32:26;102379.31;;;7.34;96.74
71764;BME280;59602;52.142;5.408;2023-02-20T05:34:53;102388.22;;;7.34;96.80
71764;BME280;59602;52.142;5.408;2023-02-20T05:37:23;102380.94;;;7.35;96.72
71764;BME280;59602;52.142;5.408;2023-02-20T05:39:50;102386.34;;;7.35;96.65
71764;BME280;59602;52.142;5.408;2023-02-20T05:42:18;102388.41;;;7.38;96.81
71764;BME280;59602;52.142;5.408;2023-02-20T05:44:44;102377.56;;;7.38;96.60
71764;BME280;59602;52.142;5.408;2023-02-20T05:47:11;102376.44;;;7.39;96.68
71764;BME280;59602;52.142;5.408;2023-02-20T05:49:38;102371.84;;;7.39;96.41
71764;BME280;59602;52.142;5.408;2023-02-20T05:52:04;102378.06;;;7.40;96.79
71764;BME280;59602;52.142;5.408;2023-02-20T05:54:38;102378.19;;;7.43;96.55
71764;BME280;59602;52.142;5.408;2023-02-20T05:57:05;102375.97;;;7.45;96.28
71764;BME280;59602;52.142;5.408;2023-02-20T05:59:32;102377.56;;;7.46;96.21
71764;BME280;59602;52.142;5.408;2023-02-20T06:01:59;102373.44;;;7.49;96.27
71764;BME280;59602;52.142;5.408;2023-02-20T06:04:26;102369.59;;;7.50;95.97
71764;BME280;59602;52.142;5.408;2023-02-20T06:06:53;102366.09;;;7.49;96.05
71764;BME280;59602;52.142;5.408;2023-02-20T06:09:19;102369.59;;;7.50;96.24
71764;BME280;59602;52.142;5.408;2023-02-20T06:11:50;102363.06;;;7.51;96.06
71764;BME280;59602;52.142;5.408;2023-02-20T06:14:18;102356.53;;;7.52;96.20
71764;BME280;59602;52.142;5.408;2023-02-20T06:16:45;102368.19;;;7.53;95.82
71764;BME280;59602;52.142;5.408;2023-02-20T06:19:23;102370.53;;;7.54;95.78
71764;BME280;59602;52.142;5.408;2023-02-20T06:21:51;102374.84;;;7.55;95.55
71764;BME280;59602;52.142;5.408;2023-02-20T06:24:19;102372.16;;;7.55;95.66
71764;BME280;59602;52.142;5.408;2023-02-20T06:26:46;102381.84;;;7.56;95.32
71764;BME280;59602;52.142;5.408;2023-02-20T06:29:14;102382.63;;;7.57;95.68
71764;BME280;59602;52.142;5.408;2023-02-20T06:31:42;102367.22;;;7.57;95.60
71764;BME280;59602;52.142;5.408;2023-02-20T06:34:10;102372.63;;;7.57;95.28
71764;BME280;59602;52.142;5.408;2023-02-20T06:36:38;102364.16;;;7.59;95.28
71764;BME280;59602;52.142;5.408;2023-02-20T06:39:07;102373.91;;;7.60;95.61
71764;BME280;59602;52.142;5.408;2023-02-20T06:41:34;102375.81;;;7.59;95.27
71764;BME280;59602;52.142;5.408;2023-02-20T06:44:01;102361.94;;;7.61;95.30
71764;BME280;59602;52.142;5.408;2023-02-20T06:46:28;102365.00;;;7.59;95.42
71764;BME280;59602;52.142;5.408;2023-02-20T06:48:56;102364.16;;;7.59;95.41
71764;BME280;59602;52.142;5.408;2023-02-20T06:51:26;102361.47;;;7.59;95.18
71764;BME280;59602;52.142;5.408;2023-02-20T06:53:53;102354.94;;;7.60;95.19
71764;BME280;59602;52.142;5.408;2023-02-20T06:56:23;102362.75;;;7.61;95.15
71764;BME280;59602;52.142;5.408;2023-02-20T06:58:51;102368.97;;;7.62;95.21
71764;BME280;59602;52.142;5.408;2023-02-20T07:01:20;102370.53;;;7.63;95.51
71764;BME280;59602;52.142;5.408;2023-02-20T07:03:48;102374.03;;;7.63;94.86
71764;BME280;59602;52.142;5.408;2023-02-20T07:06:16;102376.75;;;7.63;94.79
71764;BME280;59602;52.142;5.408;2023-02-20T07:08:42;102370.22;;;7.64;95.05
71764;BME280;59602;52.142;5.408;2023-02-20T07:11:09;102372.94;;;7.64;95.05
71764;BME280;59602;52.142;5.408;2023-02-20T07:13:36;102378.34;;;7.64;95.00
71764;BME280;59602;52.142;5.408;2023-02-20T07:16:03;102391.56;;;7.66;94.85
71764;BME280;59602;52.142;5.408;2023-02-20T07:18:29;102382.00;;;7.68;95.10
71764;BME280;59602;52.142;5.408;2023-02-20T07:20:56;102383.59;;;7.69;95.09
71764;BME280;59602;52.142;5.408;2023-02-20T07:23:23;102391.69;;;7.69;94.92
71764;BME280;59602;52.142;5.408;2023-02-20T07:25:49;102383.59;;;7.69;94.95
71764;BME280;59602;52.142;5.408;2023-02-20T07:28:17;102385.19;;;7.71;94.64
71764;BME280;59602;52.142;5.408;2023-02-20T07:30:45;102386.75;;;7.72;94.77
71764;BME280;59602;52.142;5.408;2023-02-20T07:33:15;102386.44;;;7.73;94.82
71764;BME280;59602;52.142;5.408;2023-02-20T07:35:43;102390.75;;;7.74;94.77
71764;BME280;59602;52.142;5.408;2023-02-20T07:38:10;102378.00;;;7.75;94.76
71764;BME280;59602;52.142;5.408;2023-02-20T07:40:37;102385.00;;;7.76;94.85
71764;BME280;59602;52.142;5.408;2023-02-20T07:43:05;102381.66;;;7.79;94.71
71764;BME280;59602;52.142;5.408;2023-02-20T07:45:32;102386.75;;;7.80;94.91
71764;BME280;59602;52.142;5.408;2023-02-20T07:48:10;102394.56;;;7.82;94.81
71764;BME280;59602;52.142;5.408;2023-02-20T07:50:36;102387.22;;;7.82;94.94
71764;BME280;59602;52.142;5.408;2023-02-20T07:53:03;102394.22;;;7.83;94.51
71764;BME280;59602;52.142;5.408;2023-02-20T07:55:30;102388.19;;;7.86;94.56
71764;BME280;59602;52.142;5.408;2023-02-20T07:57:56;102386.25;;;7.87;94.62
71764;BME280;59602;52.142;5.408;2023-02-20T08:00:25;102376.69;;;7.89;94.65
71764;BME280;59602;52.142;5.408;2023-02-20T08:02:52;102380.66;;;7.92;94.69
71764;BME280;59602;52.142;5.408;2023-02-20T08:05:19;102370.31;;;7.94;94.55
71764;BME280;59602;52.142;5.408;2023-02-20T08:07:47;102380.50;;;7.97;94.57
71764;BME280;59602;52.142;5.408;2023-02-20T08:10:15;102372.03;;;7.99;94.57
71764;BME280;59602;52.142;5.408;2023-02-20T08:12:42;102374.44;;;8.00;94.61
71764;BME280;59602;52.142;5.408;2023-02-20T08:15:09;102365.19;;;8.01;94.57
71764;BME280;59602;52.142;5.408;2023-02-20T08:17:38;102372.19;;;8.02;94.61
71764;BME280;59602;52.142;5.408;2023-02-20T08:20:14;102369.31;;;8.07;94.76
71764;BME280;59602;52.142;5.408;2023-02-20T08:22:43;102376.81;;;8.10;94.38
71764;BME280;59602;52.142;5.408;2023-02-20T08:25:10;102376.16;;;8.14;94.41
71764;BME280;59602;52.142;5.408;2023-02-20T08:27:41;102378.19;;;8.17;94.56
71764;BME280;59602;52.142;5.408;2023-02-20T08:30:12;102387.13;;;8.17;94.38
71764;BME280;59602;52.142;5.408;2023-02-20T08:32:40;102373.59;;;8.17;94.50
71764;BME280;59602;52.142;5.408;2023-02-20T08:35:06;102370.53;;;8.19;94.60
71764;BME280;59602;52.142;5.408;2023-02-20T08:37:33;102365.13;;;8.19;94.26
71764;BME280;59602;52.142;5.408;2023-02-20T08:39:59;102363.34;;;8.23;94.40
71764;BME280;59602;52.142;5.408;2023-02-20T08:42:32;102373.53;;;8.26;94.33
71764;BME280;59602;52.142;5.408;2023-02-20T08:45:00;102374.00;;;8.28;94.14
71764;BME280;59602;52.142;5.408;2023-02-20T08:47:26;102369.41;;;8.28;94.31
71764;BME280;59602;52.142;5.408;2023-02-20T08:49:53;102377.66;;;8.32;94.16
71764;BME280;59602;52.142;5.408;2023-02-20T08:52:20;102378.44;;;8.32;94.16
71764;BME280;59602;52.142;5.408;2023-02-20T08:54:47;102380.06;;;8.34;94.09
71764;BME280;59602;52.142;5.408;2023-02-20T08:57:16;102380.06;;;8.34;94.21
71764;BME280;59602;52.142;5.408;2023-02-20T08:59:44;102377.47;;;8.37;94.14
71764;BME280;59602;52.142;5.408;2023-02-20T09:02:19;102381.31;;;8.36;94.00
71764;BME280;59602;52.142;5.408;2023-02-20T09:04:46;102388.66;;;8.36;94.01
71764;BME280;59602;52.142;5.408;2023-02-20T09:07:13;102371.59;;;8.35;94.41
71764;BME280;59602;52.142;5.408;2023-02-20T09:09:40;102375.41;;;8.34;93.86
71764;BME280;59602;52.142;5.408;2023-02-20T09:12:08;102379.25;;;8.33;94.03
71764;BME280;59602;52.142;5.408;2023-02-20T09:14:35;102385.47;;;8.34;94.27
71764;BME280;59602;52.142;5.408;2023-02-20T09:17:03;102390.56;;;8.35;94.08
71764;BME280;59602;52.142;5.408;2023-02-20T09:19:30;102370.78;;;8.35;94.11
71764;BME280;59602;52.142;5.408;2023-02-20T09:21:57;102375.41;;;8.34;94.19
71764;BME280;59602;52.142;5.408;2023-02-20T09:24:24;102378.13;;;8.34;94.20
71764;BME280;59602;52.142;5.408;2023-02-20T09:26:53;102368.44;;;8.33;94.37
71764;BME280;59602;52.142;5.408;2023-02-20T09:29:23;102386.25;;;8.34;94.53
71764;BME280;59602;52.142;5.408;2023-02-20T09:31:50;102366.19;;;8.35;94.40
71764;BME280;59602;52.142;5.408;2023-02-20T09:34:17;102369.69;;;8.36;94.66
71764;BME280;59602;52.142;5.408;2023-02-20T09:36:43;102366.97;;;8.36;94.51
71764;BME280;59602;52.142;5.408;2023-02-20T09:39:10;102375.56;;;8.38;94.41
71764;BME280;59602;52.142;5.408;2023-02-20T09:44:37;102367.28;;;8.43;94.05
71764;BME280;59602;52.142;5.408;2023-02-20T09:47:25;102358.00;;;8.44;94.25
71764;BME280;59602;52.142;5.408;2023-02-20T09:49:59;102370.16;;;8.46;94.13
71764;BME280;59602;52.142;5.408;2023-02-20T09:52:28;102364.72;;;8.46;94.17
71764;BME280;59602;52.142;5.408;2023-02-20T09:55:18;102371.88;;;8.51;93.96
71764;BME280;59602;52.142;5.408;2023-02-20T09:57:48;102378.88;;;8.52;94.01
71764;BME280;59602;52.142;5.408;2023-02-20T10:00:31;102362.28;;;8.54;94.20
71764;BME280;59602;52.142;5.408;2023-02-20T10:10:29;102379.50;;;8.58;93.44
71764;BME280;59602;52.142;5.408;2023-02-20T10:16:55;102370.50;;;8.66;93.24
71764;BME280;59602;52.142;5.408;2023-02-20T10:19:52;102370.50;;;8.66;93.41
71764;BME280;59602;52.142;5.408;2023-02-20T10:28:18;102366.16;;;8.73;93.08
71764;BME280;59602;52.142;5.408;2023-02-20T10:51:17;102360.72;;;8.73;92.80
71764;BME280;59602;52.142;5.408;2023-02-20T11:00:46;102349.53;;;8.75;92.45
71764;BME280;59602;52.142;5.408;2023-02-20T11:03:23;102355.44;;;8.77;92.61
71764;BME280;59602;52.142;5.408;2023-02-20T11:05:54;102374.88;;;8.79;92.34
71764;BME280;59602;52.142;5.408;2023-02-20T11:08:22;102360.53;;;8.79;92.13
71764;BME280;59602;52.142;5.408;2023-02-20T11:10:55;102360.22;;;8.80;92.38
71764;BME280;59602;52.142;5.408;2023-02-20T11:13:24;102359.22;;;8.85;92.55
71764;BME280;59602;52.142;5.408;2023-02-20T11:15:55;102362.41;;;8.87;92.47
71764;BME280;59602;52.142;5.408;2023-02-20T11:18:29;102341.81;;;8.86;92.33
71764;BME280;59602;52.142;5.408;2023-02-20T11:20:58;102322.38;;;8.84;92.18
71764;BME280;59602;52.142;5.408;2023-02-20T11:23:37;102317.75;;;8.84;92.36
71764;BME280;59602;52.142;5.408;2023-02-20T11:29:02;102339.91;;;8.86;92.28
71764;BME280;59602;52.142;5.408;2023-02-20T11:31:30;102322.19;;;8.89;92.10
71764;BME280;59602;52.142;5.408;2023-02-20T11:33:57;102317.09;;;8.87;91.98
71764;BME280;59602;52.142;5.408;2023-02-20T11:36:27;102319.47;;;8.89;91.81
71764;BME280;59602;52.142;5.408;2023-02-20T11:39:02;102333.03;;;8.89;91.94
71764;BME280;59602;52.142;5.408;2023-02-20T11:41:32;102340.34;;;8.88;91.75
71764;BME280;59602;52.142;5.408;2023-02-20T11:46:35;102342.28;;;8.88;91.69
71764;BME280;59602;52.142;5.408;2023-02-20T11:49:08;102333.03;;;8.89;91.74
71764;BME280;59602;52.142;5.408;2023-02-20T11:51:43;102326.00;;;8.88;91.79
71764;BME280;59602;52.142;5.408;2023-02-20T11:54:20;102316.63;;;8.85;91.64
71764;BME280;59602;52.142;5.408;2023-02-20T11:57:20;102346.13;;;8.87;91.59
71764;BME280;59602;52.142;5.408;2023-02-20T11:59:50;102361.63;;;8.86;91.51
71764;BME280;59602;52.142;5.408;2023-02-20T12:02:22;102351.09;;;8.85;91.68
71764;BME280;59602;52.142;5.408;2023-02-20T12:05:08;102352.19;;;8.84;91.58
71764;BME280;59602;52.142;5.408;2023-02-20T12:07:40;102363.50;;;8.86;91.65
71764;BME280;59602;52.142;5.408;2023-02-20T12:10:19;102363.19;;;8.87;91.89
71764;BME280;59602;52.142;5.408;2023-02-20T12:12:48;102356.63;;;8.88;91.97
71764;BME280;59602;52.142;5.408;2023-02-20T12:15:16;102346.13;;;8.87;91.64
71764;BME280;59602;52.142;5.408;2023-02-20T12:20:28;102353.91;;;8.88;91.49
71764;BME280;59602;52.142;5.408;2023-02-20T12:23:17;102339.25;;;8.89;91.75
71764;BME280;59602;52.142;5.408;2023-02-20T12:26:09;102342.41;;;8.91;91.67
71764;BME280;59602;52.142;5.408;2023-02-20T12:31:48;102321.66;;;8.96;91.29
71764;BME280;59602;52.142;5.408;2023-02-20T12:34:23;102315.09;;;8.97;91.38
71764;BME280;59602;52.142;5.408;2023-02-20T12:39:44;102337.72;;;9.01;91.47
71764;BME280;59602;52.142;5.408;2023-02-20T12:42:31;102341.69;;;9.03;91.36
71764;BME280;59602;52.142;5.408;2023-02-20T12:45:22;102335.16;;;9.04;91.39
71764;BME280;59602;52.142;5.408;2023-02-20T12:48:27;102318.53;;;9.06;91.53
71764;BME280;59602;52.142;5.408;2023-02-20T12:53:59;102291.53;;;9.09;91.69
71764;BME280;59602;52.142;5.408;2023-02-20T12:56:46;102300.59;;;9.13;91.40
71764;BME280;59602;52.142;5.408;2023-02-20T12:59:23;102305.03;;;9.18;91.43
71764;BME280;59602;52.142;5.408;2023-02-20T13:01:52;102306.50;;;9.16;91.02
71764;BME280;59602;52.142;5.408;2023-02-20T13:04:28;102301.06;;;9.16;91.15
71764;BME280;59602;52.142;5.408;2023-02-20T13:07:03;102296.19;;;9.21;91.13
71764;BME280;59602;52.142;5.408;2023-02-20T13:09:36;102299.06;;;9.25;90.99
71764;BME280;59602;52.142;5.408;2023-02-20T13:12:10;102309.13;;;9.24;90.81
71764;BME280;59602;52.142;5.408;2023-02-20T13:15:26;102322.00;;;9.27;90.91
71764;BME280;59602;52.142;5.408;2023-02-20T13:17:46;102322.47;;;9.29;90.76
71764;BME280;59602;52.142;5.408;2023-02-20T13:20:19;102309.56;;;9.26;90.54
71764;BME280;59602;52.142;5.408;2023-02-20T13:22:58;102308.91;;;9.29;90.66
71764;BME280;59602;52.142;5.408;2023-02-20T13:30:39;102279.38;;;9.28;90.77
71764;BME280;59602;52.142;5.408;2023-02-20T13:33:20;102271.22;;;9.28;90.48
71764;BME280;59602;52.142;5.408;2023-02-20T13:35:52;102263.09;;;9.28;90.80
71764;BME280;59602;52.142;5.408;2023-02-20T13:38:22;102260.50;;;9.31;90.42
71764;BME280;59602;52.142;5.408;2023-02-20T13:43:27;102266.41;;;9.33;90.60
71764;BME280;59602;52.142;5.408;2023-02-20T13:53:43;102269.22;;;9.37;90.26
71764;BME280;59602;52.142;5.408;2023-02-20T13:56:17;102268.44;;;9.37;90.23
71764;BME280;59602;52.142;5.408;2023-02-20T13:58:44;102260.63;;;9.35;90.47
71764;BME280;59602;52.142;5.408;2023-02-20T14:01:11;102265.25;;;9.34;90.47
71764;BME280;59602;52.142;5.408;2023-02-20T14:03:38;102260.16;;;9.33;90.33
71764;BME280;59602;52.142;5.408;2023-02-20T14:06:13;102273.72;;;9.33;90.22
71764;BME280;59602;52.142;5.408;2023-02-20T14:08:43;102247.59;;;9.28;90.29
71764;BME280;59602;52.142;5.408;2023-02-20T14:11:13;102240.13;;;9.25;90.25
71764;BME280;59602;52.142;5.408;2023-02-20T14:13:43;102237.88;;;9.27;90.24
71764;BME280;59602;52.142;5.408;2023-02-20T14:16:35;102236.28;;;9.26;90.26
71764;BME280;59602;52.142;5.408;2023-02-20T14:19:20;102229.59;;;9.24;90.37
71764;BME280;59602;52.142;5.408;2023-02-20T14:21:48;102216.38;;;9.22;90.38
71764;BME280;59602;52.142;5.408;2023-02-20T14:24:21;102214.47;;;9.23;90.54
71764;BME280;59602;52.142;5.408;2023-02-20T14:26:48;102220.81;;;9.27;90.47
71764;BME280;59602;52.142;5.408;2023-02-20T14:31:49;102240.13;;;9.25;90.48
71764;BME280;59602;52.142;5.408;2023-02-20T14:34:25;102235.50;;;9.26;90.37
71764;BME280;59602;52.142;5.408;2023-02-20T14:37:07;102235.03;;;9.24;90.50
71764;BME280;59602;52.142;5.408;2023-02-20T14:39:47;102231.06;;;9.21;90.35
71764;BME280;59602;52.142;5.408;2023-02-20T14:42:20;102237.28;;;9.22;90.33
71764;BME280;59602;52.142;5.408;2023-02-20T14:44:56;102232.22;;;9.20;90.48
71764;BME280;59602;52.142;5.408;2023-02-20T14:47:24;102230.16;;;9.17;90.22
71764;BME280;59602;52.142;5.408;2023-02-20T14:49:50;102226.19;;;9.14;90.29